sensor_id;sensor_type;location;lat;lon;timestamp;pressure;altitude;pressure_sealevel;temperature;humidity
77118;BME280;66072;50.238;19.228;2023-03-01T00:01:13;99730.75;;;-5.00;80.73
77118;BME280;66072;50.238;19.228;2023-03-01T00:03:42;99728.52;;;-5.01;80.70
77118;BME280;66072;50.238;19.228;2023-03-01T00:06:10;99725.32;;;-5.03;80.69
77118;BME280;66072;50.238;19.228;2023-03-01T00:08:37;99723.92;;;-5.04;80.64
77118;BME280;66072;50.238;19.228;2023-03-01T00:11:18;99722.05;;;-5.05;80.87
77118;BME280;66072;50.238;19.228;2023-03-01T00:13:48;99724.74;;;-5.04;81.39
77118;BME280;66072;50.238;19.228;2023-03-01T00:16:27;99725.89;;;-5.01;81.62
77118;BME280;66072;50.238;19.228;2023-03-01T00:18:57;99726.02;;;-4.97;81.92
77118;BME280;66072;50.238;19.228;2023-03-01T00:21:26;99721.98;;;-4.93;81.74
77118;BME280;66072;50.238;19.228;2023-03-01T00:23:54;99723.46;;;-4.89;81.72
77118;BME280;66072;50.238;19.228;2023-03-01T00:26:23;99721.56;;;-4.86;81.86
77118;BME280;66072;50.238;19.228;2023-03-01T00:28:51;99719.33;;;-4.83;81.58
77118;BME280;66072;50.238;19.228;2023-03-01T00:31:22;99717.39;;;-4.81;81.56
77118;BME280;66072;50.238;19.228;2023-03-01T00:33:55;99717.39;;;-4.81;81.23
77118;BME280;66072;50.238;19.228;2023-03-01T00:36:25;99713.71;;;-4.81;81.05
77118;BME280;66072;50.238;19.228;2023-03-01T00:38:54;99714.84;;;-4.82;80.70
77118;BME280;66072;50.238;19.228;2023-03-01T00:41:23;99716.10;;;-4.85;80.42
77118;BME280;66072;50.238;19.228;2023-03-01T00:43:50;99714.50;;;-4.88;80.41
77118;BME280;66072;50.238;19.228;2023-03-01T00:46:20;99712.58;;;-4.90;80.50
77118;BME280;66072;50.238;19.228;2023-03-01T00:48:48;99711.77;;;-4.94;80.73
77118;BME280;66072;50.238;19.228;2023-03-01T00:51:19;99709.00;;;-5.01;80.93
77118;BME280;66072;50.238;19.228;2023-03-01T00:53:47;99705.71;;;-5.04;81.61
77118;BME280;66072;50.238;19.228;2023-03-01T00:56:17;99704.29;;;-5.07;81.73
77118;BME280;66072;50.238;19.228;2023-03-01T00:58:44;99699.71;;;-5.09;81.60
77118;BME280;66072;50.238;19.228;2023-03-01T01:01:18;99698.95;;;-5.12;81.51
77118;BME280;66072;50.238;19.228;2023-03-01T01:03:48;99698.86;;;-5.15;81.22
77118;BME280;66072;50.238;19.228;2023-03-01T01:08:49;99703.68;;;-5.20;81.40
77118;BME280;66072;50.238;19.228;2023-03-01T01:11:17;99704.38;;;-5.23;81.44
77118;BME280;66072;50.238;19.228;2023-03-01T01:13:46;99705.95;;;-5.26;81.58
77118;BME280;66072;50.238;19.228;2023-03-01T01:16:15;99697.13;;;-5.30;81.67
77118;BME280;66072;50.238;19.228;2023-03-01T01:18:45;99692.20;;;-5.33;81.74
77118;BME280;66072;50.238;19.228;2023-03-01T01:21:15;99692.46;;;-5.40;81.61
77118;BME280;66072;50.238;19.228;2023-03-01T01:23:44;99696.11;;;-5.49;81.76
77118;BME280;66072;50.238;19.228;2023-03-01T01:26:24;99693.94;;;-5.58;81.99
77118;BME280;66072;50.238;19.228;2023-03-01T01:28:53;99689.19;;;-5.64;82.20
77118;BME280;66072;50.238;19.228;2023-03-01T01:31:22;99680.73;;;-5.68;82.33
77118;BME280;66072;50.238;19.228;2023-03-01T01:33:51;99681.90;;;-5.68;82.32
77118;BME280;66072;50.238;19.228;2023-03-01T01:36:19;99684.73;;;-5.68;82.51
77118;BME280;66072;50.238;19.228;2023-03-01T01:38:46;99684.52;;;-5.69;82.24
77118;BME280;66072;50.238;19.228;2023-03-01T01:41:16;99685.07;;;-5.72;82.32
77118;BME280;66072;50.238;19.228;2023-03-01T01:43:46;99674.45;;;-5.75;82.50
77118;BME280;66072;50.238;19.228;2023-03-01T01:46:32;99669.62;;;-5.76;82.72
77118;BME280;66072;50.238;19.228;2023-03-01T01:49:03;99666.28;;;-5.76;82.84
77118;BME280;66072;50.238;19.228;2023-03-01T01:51:37;99665.23;;;-5.77;82.79
77118;BME280;66072;50.238;19.228;2023-03-01T01:54:40;99663.17;;;-5.78;82.69
77118;BME280;66072;50.238;19.228;2023-03-01T01:57:14;99656.27;;;-5.80;82.84
77118;BME280;66072;50.238;19.228;2023-03-01T01:59:48;99660.23;;;-5.81;82.55
77118;BME280;66072;50.238;19.228;2023-03-01T02:02:18;99657.61;;;-5.84;82.57
77118;BME280;66072;50.238;19.228;2023-03-01T02:04:48;99662.02;;;-5.87;82.67
77118;BME280;66072;50.238;19.228;2023-03-01T02:07:20;99665.59;;;-5.89;82.75
77118;BME280;66072;50.238;19.228;2023-03-01T02:09:50;99658.97;;;-5.93;82.62
77118;BME280;66072;50.238;19.228;2023-03-01T02:12:21;99654.16;;;-5.97;82.74
77118;BME280;66072;50.238;19.228;2023-03-01T02:14:50;99655.59;;;-5.99;82.84
77118;BME280;66072;50.238;19.228;2023-03-01T02:17:18;99651.70;;;-6.01;82.96
77118;BME280;66072;50.238;19.228;2023-03-01T02:22:33;99649.45;;;-6.03;82.98
77118;BME280;66072;50.238;19.228;2023-03-01T02:28:05;99662.91;;;-6.08;82.93
77118;BME280;66072;50.238;19.228;2023-03-01T02:30:35;99672.14;;;-6.10;82.93
77118;BME280;66072;50.238;19.228;2023-03-01T02:33:04;99672.98;;;-6.14;82.90
77118;BME280;66072;50.238;19.228;2023-03-01T02:35:35;99673.85;;;-6.17;82.89
77118;BME280;66072;50.238;19.228;2023-03-01T02:38:06;99676.77;;;-6.19;83.30
77118;BME280;66072;50.238;19.228;2023-03-01T02:40:37;99675.25;;;-6.20;83.39
77118;BME280;66072;50.238;19.228;2023-03-01T02:43:08;99672.58;;;-6.20;83.68
77118;BME280;66072;50.238;19.228;2023-03-01T02:45:36;99665.26;;;-6.20;83.73
77118;BME280;66072;50.238;19.228;2023-03-01T02:48:03;99665.42;;;-6.20;83.54
77118;BME280;66072;50.238;19.228;2023-03-01T02:50:52;99663.38;;;-6.21;83.61
77118;BME280;66072;50.238;19.228;2023-03-01T02:56:43;99662.58;;;-6.29;83.26
77118;BME280;66072;50.238;19.228;2023-03-01T02:59:11;99662.32;;;-6.31;83.23
77118;BME280;66072;50.238;19.228;2023-03-01T03:01:39;99661.23;;;-6.33;83.43
77118;BME280;66072;50.238;19.228;2023-03-01T03:04:09;99661.52;;;-6.35;83.37
77118;BME280;66072;50.238;19.228;2023-03-01T03:06:38;99663.96;;;-6.36;83.11
77118;BME280;66072;50.238;19.228;2023-03-01T03:09:05;99665.89;;;-6.38;83.23
77118;BME280;66072;50.238;19.228;2023-03-01T03:11:33;99669.85;;;-6.38;83.60
77118;BME280;66072;50.238;19.228;2023-03-01T03:14:00;99663.77;;;-6.40;83.80
77118;BME280;66072;50.238;19.228;2023-03-01T03:16:28;99654.98;;;-6.40;83.67
77118;BME280;66072;50.238;19.228;2023-03-01T03:18:56;99653.80;;;-6.40;83.55
77118;BME280;66072;50.238;19.228;2023-03-01T03:21:24;99647.81;;;-6.40;83.74
77118;BME280;66072;50.238;19.228;2023-03-01T03:23:51;99645.69;;;-6.39;83.66
77118;BME280;66072;50.238;19.228;2023-03-01T03:26:19;99643.71;;;-6.38;83.73
77118;BME280;66072;50.238;19.228;2023-03-01T03:28:46;99640.04;;;-6.38;83.84
77118;BME280;66072;50.238;19.228;2023-03-01T03:31:14;99637.41;;;-6.38;83.86
77118;BME280;66072;50.238;19.228;2023-03-01T03:33:41;99635.12;;;-6.37;83.87
77118;BME280;66072;50.238;19.228;2023-03-01T03:36:09;99634.96;;;-6.37;84.06
77118;BME280;66072;50.238;19.228;2023-03-01T03:38:42;99628.95;;;-6.33;84.14
77118;BME280;66072;50.238;19.228;2023-03-01T03:41:09;99628.70;;;-6.31;84.26
77118;BME280;66072;50.238;19.228;2023-03-01T03:43:38;99627.74;;;-6.30;83.86
77118;BME280;66072;50.238;19.228;2023-03-01T03:46:06;99631.55;;;-6.31;83.80
77118;BME280;66072;50.238;19.228;2023-03-01T03:48:36;99633.05;;;-6.30;84.04
77118;BME280;66072;50.238;19.228;2023-03-01T03:51:05;99635.05;;;-6.31;83.70
77118;BME280;66072;50.238;19.228;2023-03-01T03:53:33;99635.96;;;-6.32;83.78
77118;BME280;66072;50.238;19.228;2023-03-01T03:56:01;99637.42;;;-6.33;83.90
77118;BME280;66072;50.238;19.228;2023-03-01T03:58:28;99641.08;;;-6.34;83.86
77118;BME280;66072;50.238;19.228;2023-03-01T04:00:56;99639.15;;;-6.36;83.75
77118;BME280;66072;50.238;19.228;2023-03-01T04:03:26;99635.34;;;-6.39;83.76
77118;BME280;66072;50.238;19.228;2023-03-01T04:05:54;99635.36;;;-6.44;83.64
77118;BME280;66072;50.238;19.228;2023-03-01T04:08:22;99634.21;;;-6.47;83.47
77118;BME280;66072;50.238;19.228;2023-03-01T04:10:52;99631.72;;;-6.52;83.71
77118;BME280;66072;50.238;19.228;2023-03-01T04:13:21;99632.71;;;-6.56;83.69
77118;BME280;66072;50.238;19.228;2023-03-01T04:15:53;99631.39;;;-6.60;83.74
77118;BME280;66072;50.238;19.228;2023-03-01T04:18:22;99634.79;;;-6.62;84.01
77118;BME280;66072;50.238;19.228;2023-03-01T04:20:50;99636.37;;;-6.64;83.88
77118;BME280;66072;50.238;19.228;2023-03-01T04:23:19;99638.02;;;-6.64;84.14
77118;BME280;66072;50.238;19.228;2023-03-01T04:25:54;99632.77;;;-6.63;84.25
77118;BME280;66072;50.238;19.228;2023-03-01T04:28:23;99636.66;;;-6.61;84.06
77118;BME280;66072;50.238;19.228;2023-03-01T04:30:52;99636.95;;;-6.62;83.96
77118;BME280;66072;50.238;19.228;2023-03-01T04:33:20;99631.73;;;-6.63;83.95
77118;BME280;66072;50.238;19.228;2023-03-01T04:35:48;99629.73;;;-6.63;84.04
77118;BME280;66072;50.238;19.228;2023-03-01T04:38:17;99629.48;;;-6.62;84.10
77118;BME280;66072;50.238;19.228;2023-03-01T04:40:45;99626.36;;;-6.60;84.15
77118;BME280;66072;50.238;19.228;2023-03-01T04:43:13;99620.60;;;-6.59;84.24
77118;BME280;66072;50.238;19.228;2023-03-01T04:45:41;99619.56;;;-6.56;84.25
77118;BME280;66072;50.238;19.228;2023-03-01T04:48:08;99623.17;;;-6.53;84.36
77118;BME280;66072;50.238;19.228;2023-03-01T04:50:36;99618.40;;;-6.52;84.29
77118;BME280;66072;50.238;19.228;2023-03-01T04:53:04;99621.02;;;-6.48;84.26
77118;BME280;66072;50.238;19.228;2023-03-01T04:55:31;99618.76;;;-6.46;84.26
77118;BME280;66072;50.238;19.228;2023-03-01T04:57:59;99616.24;;;-6.47;84.06
77118;BME280;66072;50.238;19.228;2023-03-01T05:00:26;99612.45;;;-6.51;83.92
77118;BME280;66072;50.238;19.228;2023-03-01T05:03:00;99610.79;;;-6.55;83.95
77118;BME280;66072;50.238;19.228;2023-03-01T05:05:31;99606.66;;;-6.58;83.78
77118;BME280;66072;50.238;19.228;2023-03-01T05:08:07;99602.23;;;-6.61;84.13
77118;BME280;66072;50.238;19.228;2023-03-01T05:10:36;99605.42;;;-6.60;84.14
77118;BME280;66072;50.238;19.228;2023-03-01T05:13:04;99612.37;;;-6.61;84.19
77118;BME280;66072;50.238;19.228;2023-03-01T05:15:31;99613.01;;;-6.62;84.23
77118;BME280;66072;50.238;19.228;2023-03-01T05:17:59;99605.41;;;-6.64;84.17
77118;BME280;66072;50.238;19.228;2023-03-01T05:20:29;99602.08;;;-6.65;84.34
77118;BME280;66072;50.238;19.228;2023-03-01T05:22:58;99596.41;;;-6.65;84.24
77118;BME280;66072;50.238;19.228;2023-03-01T05:25:27;99591.84;;;-6.63;84.50
77118;BME280;66072;50.238;19.228;2023-03-01T05:27:54;99594.10;;;-6.60;84.48
77118;BME280;66072;50.238;19.228;2023-03-01T05:30:22;99597.17;;;-6.58;84.38
77118;BME280;66072;50.238;19.228;2023-03-01T05:32:50;99596.48;;;-6.55;84.68
77118;BME280;66072;50.238;19.228;2023-03-01T05:35:18;99596.50;;;-6.55;84.17
77118;BME280;66072;50.238;19.228;2023-03-01T05:37:48;99601.80;;;-6.55;83.96
77118;BME280;66072;50.238;19.228;2023-03-01T05:40:18;99602.33;;;-6.58;83.86
77118;BME280;66072;50.238;19.228;2023-03-01T05:42:55;99609.50;;;-6.58;84.19
77118;BME280;66072;50.238;19.228;2023-03-01T05:45:25;99620.24;;;-6.56;84.61
77118;BME280;66072;50.238;19.228;2023-03-01T05:47:53;99623.67;;;-6.53;84.64
77118;BME280;66072;50.238;19.228;2023-03-01T05:50:26;99622.32;;;-6.50;84.63
77118;BME280;66072;50.238;19.228;2023-03-01T05:53:12;99625.58;;;-6.46;84.32
77118;BME280;66072;50.238;19.228;2023-03-01T05:55:41;99623.77;;;-6.42;84.20
77118;BME280;66072;50.238;19.228;2023-03-01T05:58:14;99625.56;;;-6.39;84.19
77118;BME280;66072;50.238;19.228;2023-03-01T06:00:43;99623.56;;;-6.35;84.48
77118;BME280;66072;50.238;19.228;2023-03-01T06:03:12;99623.27;;;-6.29;84.53
77118;BME280;66072;50.238;19.228;2023-03-01T06:05:41;99622.51;;;-6.23;84.28
77118;BME280;66072;50.238;19.228;2023-03-01T06:08:10;99620.14;;;-6.16;84.34
77118;BME280;66072;50.238;19.228;2023-03-01T06:10:38;99622.27;;;-6.08;84.14
77118;BME280;66072;50.238;19.228;2023-03-01T06:13:06;99628.35;;;-6.01;84.27
77118;BME280;66072;50.238;19.228;2023-03-01T06:15:34;99625.67;;;-5.93;84.38
77118;BME280;66072;50.238;19.228;2023-03-01T06:18:01;99622.11;;;-5.85;84.21
77118;BME280;66072;50.238;19.228;2023-03-01T06:20:29;99620.89;;;-5.77;83.98
77118;BME280;66072;50.238;19.228;2023-03-01T06:22:57;99621.86;;;-5.70;84.22
77118;BME280;66072;50.238;19.228;2023-03-01T06:25:25;99626.13;;;-5.62;84.09
77118;BME280;66072;50.238;19.228;2023-03-01T06:27:53;99632.75;;;-5.54;84.27
77118;BME280;66072;50.238;19.228;2023-03-01T06:30:22;99631.50;;;-5.47;84.17
77118;BME280;66072;50.238;19.228;2023-03-01T06:32:51;99635.46;;;-5.39;84.04
77118;BME280;66072;50.238;19.228;2023-03-01T06:35:19;99637.69;;;-5.33;83.81
77118;BME280;66072;50.238;19.228;2023-03-01T06:37:47;99635.80;;;-5.25;83.80
77118;BME280;66072;50.238;19.228;2023-03-01T06:40:15;99629.39;;;-5.17;83.69
77118;BME280;66072;50.238;19.228;2023-03-01T06:42:48;99625.33;;;-5.10;83.75
77118;BME280;66072;50.238;19.228;2023-03-01T06:45:17;99619.27;;;-5.01;83.62
77118;BME280;66072;50.238;19.228;2023-03-01T06:47:46;99615.42;;;-4.92;83.79
77118;BME280;66072;50.238;19.228;2023-03-01T06:50:15;99620.56;;;-4.83;83.47
77118;BME280;66072;50.238;19.228;2023-03-01T06:52:43;99623.70;;;-4.74;83.26
77118;BME280;66072;50.238;19.228;2023-03-01T06:55:12;99622.96;;;-4.66;83.32
77118;BME280;66072;50.238;19.228;2023-03-01T06:57:40;99623.77;;;-4.56;83.23
77118;BME280;66072;50.238;19.228;2023-03-01T07:00:08;99623.55;;;-4.48;82.97
77118;BME280;66072;50.238;19.228;2023-03-01T07:02:36;99621.78;;;-4.41;82.76
77118;BME280;66072;50.238;19.228;2023-03-01T07:05:04;99621.17;;;-4.33;82.67
77118;BME280;66072;50.238;19.228;2023-03-01T07:07:32;99620.61;;;-4.25;82.52
77118;BME280;66072;50.238;19.228;2023-03-01T07:10:00;99618.36;;;-4.16;82.36
77118;BME280;66072;50.238;19.228;2023-03-01T07:12:27;99612.39;;;-4.10;81.95
77118;BME280;66072;50.238;19.228;2023-03-01T07:14:55;99609.62;;;-4.02;82.11
77118;BME280;66072;50.238;19.228;2023-03-01T07:17:22;99607.98;;;-3.95;81.86
77118;BME280;66072;50.238;19.228;2023-03-01T07:19:50;99604.75;;;-3.86;81.65
77118;BME280;66072;50.238;19.228;2023-03-01T07:22:17;99600.70;;;-3.75;81.79
77118;BME280;66072;50.238;19.228;2023-03-01T07:24:45;99597.38;;;-3.63;81.70
77118;BME280;66072;50.238;19.228;2023-03-01T07:27:13;99595.08;;;-3.50;81.44
77118;BME280;66072;50.238;19.228;2023-03-01T07:29:40;99598.50;;;-3.35;81.69
77118;BME280;66072;50.238;19.228;2023-03-01T07:32:09;99598.10;;;-3.19;81.69
77118;BME280;66072;50.238;19.228;2023-03-01T07:34:37;99601.89;;;-3.02;81.49
77118;BME280;66072;50.238;19.228;2023-03-01T07:37:05;99597.98;;;-2.84;80.91
77118;BME280;66072;50.238;19.228;2023-03-01T07:39:32;99597.98;;;-2.64;81.03
77118;BME280;66072;50.238;19.228;2023-03-01T07:42:00;99595.73;;;-2.46;80.24
77118;BME280;66072;50.238;19.228;2023-03-01T07:44:27;99596.75;;;-2.32;80.23
77118;BME280;66072;50.238;19.228;2023-03-01T07:46:55;99596.70;;;-2.20;80.04
77118;BME280;66072;50.238;19.228;2023-03-01T07:49:22;99603.28;;;-2.10;79.33
77118;BME280;66072;50.238;19.228;2023-03-01T07:51:50;99604.30;;;-2.02;78.80
77118;BME280;66072;50.238;19.228;2023-03-01T07:54:17;99603.45;;;-1.96;78.33
77118;BME280;66072;50.238;19.228;2023-03-01T07:56:45;99598.90;;;-1.89;78.11
77118;BME280;66072;50.238;19.228;2023-03-01T07:59:13;99602.05;;;-1.82;77.72
77118;BME280;66072;50.238;19.228;2023-03-01T08:01:41;99600.52;;;-1.76;77.27
77118;BME280;66072;50.238;19.228;2023-03-01T08:04:08;99599.13;;;-1.70;77.13
77118;BME280;66072;50.238;19.228;2023-03-01T08:06:36;99599.52;;;-1.59;76.91
77118;BME280;66072;50.238;19.228;2023-03-01T08:09:03;99596.16;;;-1.51;76.64
77118;BME280;66072;50.238;19.228;2023-03-01T08:11:31;99599.48;;;-1.45;76.43
77118;BME280;66072;50.238;19.228;2023-03-01T08:13:59;99601.94;;;-1.39;76.73
77118;BME280;66072;50.238;19.228;2023-03-01T08:16:26;99597.02;;;-1.33;76.19
77118;BME280;66072;50.238;19.228;2023-03-01T08:18:54;99593.61;;;-1.27;76.62
77118;BME280;66072;50.238;19.228;2023-03-01T08:21:22;99590.70;;;-1.21;76.88
77118;BME280;66072;50.238;19.228;2023-03-01T08:23:49;99589.32;;;-1.15;76.26
77118;BME280;66072;50.238;19.228;2023-03-01T08:26:20;99582.72;;;-1.09;76.09
77118;BME280;66072;50.238;19.228;2023-03-01T08:28:48;99579.85;;;-1.00;75.55
77118;BME280;66072;50.238;19.228;2023-03-01T08:31:27;99581.66;;;-0.92;74.72
77118;BME280;66072;50.238;19.228;2023-03-01T08:33:58;99581.51;;;-0.81;74.21
77118;BME280;66072;50.238;19.228;2023-03-01T08:36:28;99580.33;;;-0.72;74.20
77118;BME280;66072;50.238;19.228;2023-03-01T08:38:57;99577.30;;;-0.63;73.99
77118;BME280;66072;50.238;19.228;2023-03-01T08:41:25;99576.60;;;-0.53;73.60
77118;BME280;66072;50.238;19.228;2023-03-01T08:43:53;99575.88;;;-0.45;73.02
77118;BME280;66072;50.238;19.228;2023-03-01T08:46:21;99571.47;;;-0.37;72.42
77118;BME280;66072;50.238;19.228;2023-03-01T08:48:49;99563.56;;;-0.27;72.49
77118;BME280;66072;50.238;19.228;2023-03-01T08:51:17;99563.73;;;-0.16;72.37
77118;BME280;66072;50.238;19.228;2023-03-01T08:53:46;99568.08;;;-0.05;72.96
77118;BME280;66072;50.238;19.228;2023-03-01T08:56:14;99571.75;;;0.05;72.59
77118;BME280;66072;50.238;19.228;2023-03-01T08:58:47;99568.17;;;0.14;72.16
77118;BME280;66072;50.238;19.228;2023-03-01T09:01:17;99568.46;;;0.24;71.73
77118;BME280;66072;50.238;19.228;2023-03-01T09:03:45;99567.09;;;0.35;70.69
77118;BME280;66072;50.238;19.228;2023-03-01T09:06:14;99566.02;;;0.43;69.88
77118;BME280;66072;50.238;19.228;2023-03-01T09:08:44;99566.94;;;0.51;69.05
77118;BME280;66072;50.238;19.228;2023-03-01T09:11:15;99567.55;;;0.61;69.07
77118;BME280;66072;50.238;19.228;2023-03-01T09:13:44;99563.83;;;0.74;68.66
77118;BME280;66072;50.238;19.228;2023-03-01T09:16:15;99566.66;;;0.87;68.29
77118;BME280;66072;50.238;19.228;2023-03-01T09:18:43;99567.46;;;0.99;68.16
77118;BME280;66072;50.238;19.228;2023-03-01T09:21:16;99569.60;;;1.12;67.52
77118;BME280;66072;50.238;19.228;2023-03-01T09:23:51;99567.69;;;1.24;66.00
77118;BME280;66072;50.238;19.228;2023-03-01T09:26:20;99565.94;;;1.35;65.61
77118;BME280;66072;50.238;19.228;2023-03-01T09:28:51;99565.67;;;1.46;63.14
77118;BME280;66072;50.238;19.228;2023-03-01T09:31:20;99562.06;;;1.59;63.03
77118;BME280;66072;50.238;19.228;2023-03-01T09:33:50;99559.62;;;1.71;64.61
77118;BME280;66072;50.238;19.228;2023-03-01T09:36:20;99556.84;;;1.84;63.00
77118;BME280;66072;50.238;19.228;2023-03-01T09:38:49;99555.22;;;1.95;62.81
77118;BME280;66072;50.238;19.228;2023-03-01T09:43:50;99554.70;;;2.26;63.86
77118;BME280;66072;50.238;19.228;2023-03-01T09:46:22;99553.42;;;2.44;63.87
77118;BME280;66072;50.238;19.228;2023-03-01T09:49:01;99549.95;;;2.61;63.34
77118;BME280;66072;50.238;19.228;2023-03-01T09:51:33;99542.90;;;2.84;62.95
77118;BME280;66072;50.238;19.228;2023-03-01T09:54:02;99541.25;;;3.08;61.35
77118;BME280;66072;50.238;19.228;2023-03-01T09:56:38;99547.52;;;3.35;58.87
77118;BME280;66072;50.238;19.228;2023-03-01T10:01:59;99547.09;;;4.06;58.64
77118;BME280;66072;50.238;19.228;2023-03-01T10:04:46;99545.55;;;4.53;56.63
77118;BME280;66072;50.238;19.228;2023-03-01T10:10:08;99540.23;;;5.21;53.30
77118;BME280;66072;50.238;19.228;2023-03-01T10:12:42;99536.41;;;5.54;53.60
77118;BME280;66072;50.238;19.228;2023-03-01T10:15:15;99540.55;;;5.82;53.13
77118;BME280;66072;50.238;19.228;2023-03-01T10:17:46;99536.45;;;6.18;52.08
77118;BME280;66072;50.238;19.228;2023-03-01T10:20:24;99534.10;;;6.59;51.21
77118;BME280;66072;50.238;19.228;2023-03-01T10:22:52;99529.27;;;7.11;50.79
77118;BME280;66072;50.238;19.228;2023-03-01T10:25:36;99526.45;;;7.49;50.32
77118;BME280;66072;50.238;19.228;2023-03-01T10:30:45;99531.06;;;8.49;48.47
77118;BME280;66072;50.238;19.228;2023-03-01T10:33:27;99529.47;;;8.91;48.49
77118;BME280;66072;50.238;19.228;2023-03-01T10:35:56;99523.23;;;9.25;45.95
77118;BME280;66072;50.238;19.228;2023-03-01T10:38:24;99519.25;;;9.61;46.29
77118;BME280;66072;50.238;19.228;2023-03-01T10:40:55;99520.19;;;9.78;42.20
77118;BME280;66072;50.238;19.228;2023-03-01T10:43:25;99518.68;;;9.77;40.54
77118;BME280;66072;50.238;19.228;2023-03-01T10:45:53;99519.30;;;9.72;41.30
77118;BME280;66072;50.238;19.228;2023-03-01T10:48:25;99519.27;;;9.99;42.60
77118;BME280;66072;50.238;19.228;2023-03-01T10:53:35;99511.60;;;10.11;38.49
77118;BME280;66072;50.238;19.228;2023-03-01T10:56:10;99508.25;;;10.08;39.09
77118;BME280;66072;50.238;19.228;2023-03-01T10:58:39;99505.59;;;10.00;39.29
77118;BME280;66072;50.238;19.228;2023-03-01T11:03:42;99499.66;;;10.47;40.41
77118;BME280;66072;50.238;19.228;2023-03-01T11:08:45;99494.33;;;11.04;40.05
77118;BME280;66072;50.238;19.228;2023-03-01T11:11:23;99489.54;;;11.35;39.69
77118;BME280;66072;50.238;19.228;2023-03-01T11:13:53;99484.34;;;11.78;38.38
77118;BME280;66072;50.238;19.228;2023-03-01T11:16:29;99483.48;;;12.08;38.93
77118;BME280;66072;50.238;19.228;2023-03-01T11:21:29;99478.73;;;12.74;36.65
77118;BME280;66072;50.238;19.228;2023-03-01T11:24:01;99472.60;;;13.07;34.89
77118;BME280;66072;50.238;19.228;2023-03-01T11:26:30;99467.96;;;13.37;34.27
77118;BME280;66072;50.238;19.228;2023-03-01T11:29:03;99465.39;;;13.73;34.40
77118;BME280;66072;50.238;19.228;2023-03-01T11:31:33;99462.34;;;14.08;31.70
77118;BME280;66072;50.238;19.228;2023-03-01T11:34:11;99460.00;;;14.14;33.51
77118;BME280;66072;50.238;19.228;2023-03-01T11:36:45;99464.39;;;14.50;33.03
77118;BME280;66072;50.238;19.228;2023-03-01T11:39:59;99464.23;;;15.01;32.91
77118;BME280;66072;50.238;19.228;2023-03-01T11:42:25;99467.45;;;15.61;32.16
77118;BME280;66072;50.238;19.228;2023-03-01T11:44:59;99468.19;;;16.26;31.65
77118;BME280;66072;50.238;19.228;2023-03-01T11:50:13;99460.54;;;16.87;27.43
77118;BME280;66072;50.238;19.228;2023-03-01T11:52:55;99457.50;;;16.70;26.76
77118;BME280;66072;50.238;19.228;2023-03-01T11:55:36;99451.21;;;16.17;25.54
77118;BME280;66072;50.238;19.228;2023-03-01T12:04:01;99444.31;;;16.30;28.55
77118;BME280;66072;50.238;19.228;2023-03-01T12:06:46;99442.20;;;16.72;26.59
77118;BME280;66072;50.238;19.228;2023-03-01T12:09:49;99429.23;;;17.21;28.70
77118;BME280;66072;50.238;19.228;2023-03-01T12:18:13;99420.76;;;19.05;25.78
77118;BME280;66072;50.238;19.228;2023-03-01T12:23:46;99416.74;;;19.37;24.34
77118;BME280;66072;50.238;19.228;2023-03-01T12:43:01;99393.48;;;21.55;23.13
77118;BME280;66072;50.238;19.228;2023-03-01T12:46:09;99390.42;;;21.37;20.98
77118;BME280;66072;50.238;19.228;2023-03-01T12:49:26;99384.39;;;21.11;21.46
77118;BME280;66072;50.238;19.228;2023-03-01T12:52:13;99380.77;;;21.65;22.02
77118;BME280;66072;50.238;19.228;2023-03-01T12:54:42;99380.91;;;21.75;19.91
77118;BME280;66072;50.238;19.228;2023-03-01T13:03:19;99377.66;;;21.38;20.14
77118;BME280;66072;50.238;19.228;2023-03-01T13:06:06;99369.99;;;21.67;19.64
77118;BME280;66072;50.238;19.228;2023-03-01T13:08:49;99366.73;;;21.56;20.11
77118;BME280;66072;50.238;19.228;2023-03-01T13:11:23;99363.31;;;22.34;20.98
77118;BME280;66072;50.238;19.228;2023-03-01T13:13:51;99362.44;;;23.34;20.68
77118;BME280;66072;50.238;19.228;2023-03-01T13:16:39;99363.02;;;23.68;17.93
77118;BME280;66072;50.238;19.228;2023-03-01T13:19:16;99367.46;;;24.21;19.28
77118;BME280;66072;50.238;19.228;2023-03-01T13:21:46;99358.02;;;24.74;19.11
77118;BME280;66072;50.238;19.228;2023-03-01T13:29:54;99358.96;;;25.93;17.96
77118;BME280;66072;50.238;19.228;2023-03-01T13:32:24;99357.27;;;26.20;18.36
77118;BME280;66072;50.238;19.228;2023-03-01T13:35:40;99359.94;;;26.75;18.51
77118;BME280;66072;50.238;19.228;2023-03-01T13:41:08;99356.34;;;27.95;17.09
77118;BME280;66072;50.238;19.228;2023-03-01T13:43:41;99355.30;;;28.27;16.68
77118;BME280;66072;50.238;19.228;2023-03-01T13:46:21;99354.30;;;28.61;17.03
77118;BME280;66072;50.238;19.228;2023-03-01T13:48:53;99352.27;;;28.45;14.46
77118;BME280;66072;50.238;19.228;2023-03-01T13:51:26;99349.48;;;27.94;15.89
77118;BME280;66072;50.238;19.228;2023-03-01T13:53:55;99343.67;;;27.81;15.84
77118;BME280;66072;50.238;19.228;2023-03-01T13:56:27;99344.54;;;27.73;15.36
77118;BME280;66072;50.238;19.228;2023-03-01T13:59:03;99339.02;;;27.88;15.63
77118;BME280;66072;50.238;19.228;2023-03-01T14:01:35;99333.18;;;27.91;15.81
77118;BME280;66072;50.238;19.228;2023-03-01T14:04:21;99327.33;;;27.41;15.30
77118;BME280;66072;50.238;19.228;2023-03-01T14:06:50;99322.09;;;26.94;16.64
77118;BME280;66072;50.238;19.228;2023-03-01T14:09:21;99321.05;;;26.87;16.74
77118;BME280;66072;50.238;19.228;2023-03-01T14:17:44;99321.88;;;26.34;16.63
77118;BME280;66072;50.238;19.228;2023-03-01T14:20:19;99321.39;;;26.12;17.18
77118;BME280;66072;50.238;19.228;2023-03-01T14:22:48;99312.51;;;26.24;17.93
77118;BME280;66072;50.238;19.228;2023-03-01T14:30:44;99309.75;;;24.74;18.27
77118;BME280;66072;50.238;19.228;2023-03-01T14:35:59;99297.78;;;24.95;16.90
77118;BME280;66072;50.238;19.228;2023-03-01T14:38:37;99295.48;;;24.88;15.31
77118;BME280;66072;50.238;19.228;2023-03-01T14:41:10;99296.77;;;24.41;16.41
77118;BME280;66072;50.238;19.228;2023-03-01T14:43:43;99297.50;;;24.43;17.63
77118;BME280;66072;50.238;19.228;2023-03-01T14:48:49;99296.73;;;25.14;17.34